createdAt,value
2018-05-25T00:00:05.859Z,15.10
2018-05-25T00:01:08.173Z,15.00
2018-05-25T00:02:10.648Z,15.00
2018-05-25T00:03:06.094Z,15.10
2018-05-25T00:04:08.239Z,15.00
2018-05-25T00:05:06.277Z,15.00
2018-05-25T00:06:05.962Z,15.00
2018-05-25T00:07:08.146Z,15.00
2018-05-25T00:08:08.258Z,15.00
2018-05-25T00:09:05.844Z,15.00
2018-05-25T00:10:08.591Z,15.00
2018-05-25T00:11:06.108Z,15.00
2018-05-25T00:12:05.833Z,15.00
2018-05-25T00:13:08.116Z,15.00
2018-05-25T00:14:05.603Z,15.00
2018-05-25T00:15:10.316Z,15.00
2018-05-25T00:16:05.791Z,15.00
2018-05-25T00:17:06.459Z,15.00
2018-05-25T00:18:08.703Z,15.00
2018-05-25T00:19:08.453Z,15.00
2018-05-25T00:20:08.562Z,15.00
2018-05-25T00:21:06.187Z,15.00
2018-05-25T00:22:05.961Z,15.00
2018-05-25T00:23:05.634Z,15.00
2018-05-25T00:24:05.431Z,15.10
2018-05-25T00:25:05.312Z,15.00
2018-05-25T00:26:05.898Z,15.00
2018-05-25T00:27:12.976Z,15.00
2018-05-25T00:28:05.880Z,15.00
2018-05-25T00:29:08.063Z,15.00
2018-05-25T00:30:05.686Z,15.00
2018-05-25T00:31:05.255Z,15.00
2018-05-25T00:32:06.213Z,15.00
2018-05-25T00:33:06.077Z,15.10
2018-05-25T00:34:05.180Z,15.00
2018-05-25T00:35:08.057Z,15.00
2018-05-25T00:36:05.618Z,15.00
2018-05-25T00:37:07.763Z,15.00
2018-05-25T00:38:05.769Z,15.00
2018-05-25T00:39:05.347Z,15.10
2018-05-25T00:40:08.577Z,15.00
2018-05-25T00:41:08.161Z,15.00
2018-05-25T00:42:10.864Z,15.00
2018-05-25T00:43:08.101Z,15.00
2018-05-25T00:44:08.164Z,15.00
2018-05-25T00:45:08.890Z,15.00
2018-05-25T00:46:05.521Z,15.00
2018-05-25T00:47:06.153Z,15.00
2018-05-25T00:48:06.011Z,15.00
2018-05-25T00:49:06.089Z,15.00
2018-05-25T00:50:06.241Z,15.00
2018-05-25T00:51:08.116Z,15.00
2018-05-25T00:52:05.659Z,15.00
2018-05-25T00:53:05.484Z,15.00
2018-05-25T00:54:05.661Z,15.00
2018-05-25T00:55:06.371Z,15.00
2018-05-25T00:56:13.663Z,15.00
2018-05-25T00:57:05.284Z,15.00
2018-05-25T00:58:06.047Z,15.00
2018-05-25T00:59:06.071Z,14.90
2018-05-25T01:00:06.297Z,14.90
2018-05-25T01:01:06.153Z,14.90
2018-05-25T01:02:06.532Z,14.90
2018-05-25T01:03:10.313Z,14.90
2018-05-25T01:04:08.385Z,14.90
2018-05-25T01:05:08.579Z,14.90
2018-05-25T01:06:06.130Z,14.90
2018-05-25T01:07:06.127Z,14.90
2018-05-25T01:08:06.197Z,14.90
2018-05-25T01:09:07.708Z,14.90
2018-05-25T01:10:05.135Z,14.90
2018-05-25T01:11:05.390Z,14.90
2018-05-25T01:12:06.108Z,14.90
2018-05-25T01:13:05.712Z,14.90
2018-05-25T01:14:05.735Z,14.90
2018-05-25T01:15:05.439Z,14.90
2018-05-25T01:16:07.951Z,14.90
2018-05-25T01:17:05.644Z,14.90
2018-05-25T01:18:05.988Z,14.90
2018-05-25T01:19:05.808Z,14.90
2018-05-25T01:20:06.427Z,14.90
2018-05-25T01:21:08.705Z,14.80
2018-05-25T01:22:08.058Z,14.90
2018-05-25T01:23:05.598Z,14.90
2018-05-25T01:24:06.588Z,14.90
2018-05-25T01:25:08.430Z,14.90
2018-05-25T01:26:06.090Z,14.90
2018-05-25T01:27:05.981Z,14.90
2018-05-25T01:28:06.213Z,14.90
2018-05-25T01:29:06.364Z,14.90
2018-05-25T01:30:06.408Z,14.90
2018-05-25T01:31:06.328Z,14.90
2018-05-25T01:32:08.395Z,14.90
2018-05-25T01:33:05.867Z,14.90
2018-05-25T01:34:08.006Z,14.90
2018-05-25T01:35:05.963Z,14.90
2018-05-25T01:36:05.715Z,14.90
2018-05-25T01:37:05.407Z,14.90
2018-05-25T01:38:11.115Z,14.90
2018-05-25T01:39:08.091Z,14.90
2018-05-25T01:40:08.133Z,14.90
2018-05-25T01:41:05.423Z,14.90
2018-05-25T01:42:05.650Z,14.90
2018-05-25T01:43:10.626Z,14.90
2018-05-25T01:44:06.047Z,14.90
2018-05-25T01:45:09.599Z,14.90
2018-05-25T01:46:05.200Z,14.90
2018-05-25T01:47:06.083Z,14.90
2018-05-25T01:48:05.756Z,14.90
2018-05-25T01:49:05.544Z,14.90
2018-05-25T01:50:05.725Z,14.90
2018-05-25T01:51:07.925Z,14.90
2018-05-25T01:52:10.536Z,14.90
2018-05-25T01:53:06.152Z,14.90
2018-05-25T01:54:06.116Z,14.90
2018-05-25T01:55:06.002Z,14.90
2018-05-25T01:56:08.527Z,14.90
2018-05-25T01:57:11.152Z,14.90
2018-05-25T01:58:05.678Z,14.90
2018-05-25T01:59:05.863Z,14.90
2018-05-25T02:00:08.954Z,14.80
2018-05-25T02:01:08.812Z,14.90
2018-05-25T02:02:05.877Z,14.90
2018-05-25T02:03:08.657Z,14.90
2018-05-25T02:04:06.114Z,14.90
2018-05-25T02:05:06.164Z,14.80
2018-05-25T02:06:06.091Z,14.80
2018-05-25T02:07:08.332Z,14.80
2018-05-25T02:08:08.479Z,14.80
2018-05-25T02:09:06.501Z,14.80
2018-05-25T02:10:05.399Z,14.80
2018-05-25T02:11:05.804Z,14.80
2018-05-25T02:12:08.105Z,14.80
2018-05-25T02:13:05.516Z,14.80
2018-05-25T02:14:10.442Z,14.80
2018-05-25T02:15:05.390Z,14.80
2018-05-25T02:16:06.322Z,14.90
2018-05-25T02:17:05.847Z,14.80
2018-05-25T02:18:08.324Z,14.80
2018-05-25T02:19:05.784Z,14.80
2018-05-25T02:20:05.408Z,14.80
2018-05-25T02:21:05.329Z,14.80
2018-05-25T02:22:10.347Z,14.80
2018-05-25T02:23:05.569Z,14.80
2018-05-25T02:24:05.155Z,14.80
2018-05-25T02:25:06.457Z,14.80
2018-05-25T02:26:05.420Z,14.80
2018-05-25T02:27:05.999Z,14.80
2018-05-25T02:28:10.481Z,14.80
2018-05-25T02:29:08.583Z,14.80
2018-05-25T02:30:06.059Z,14.80
2018-05-25T02:31:05.910Z,14.80
2018-05-25T02:32:08.126Z,14.80
2018-05-25T02:33:08.205Z,14.80
2018-05-25T02:34:11.100Z,14.80
2018-05-25T02:35:07.981Z,14.80
2018-05-25T02:36:06.151Z,14.80
2018-05-25T02:37:06.320Z,14.80
2018-05-25T02:38:05.424Z,14.80
2018-05-25T02:39:06.190Z,14.80
2018-05-25T02:40:08.656Z,14.80
2018-05-25T02:41:05.337Z,14.80
2018-05-25T02:42:06.240Z,14.80
2018-05-25T02:43:06.318Z,14.80
2018-05-25T02:44:06.064Z,14.80
2018-05-25T02:45:08.323Z,14.80
2018-05-25T02:46:05.998Z,14.80
2018-05-25T02:47:05.958Z,14.80
2018-05-25T02:48:05.981Z,14.80
2018-05-25T02:49:10.741Z,14.80
2018-05-25T02:50:05.346Z,14.80
2018-05-25T02:51:05.480Z,14.80
2018-05-25T02:52:05.527Z,14.80
2018-05-25T02:53:05.437Z,14.80
2018-05-25T02:54:06.530Z,14.80
2018-05-25T02:55:06.496Z,14.80
2018-05-25T02:56:05.795Z,14.80
2018-05-25T02:57:05.756Z,14.80
2018-05-25T02:58:07.938Z,14.80
2018-05-25T02:59:05.423Z,14.80
2018-05-25T03:00:08.682Z,14.80
2018-05-25T03:01:05.179Z,14.80
2018-05-25T03:02:05.796Z,14.80
2018-05-25T03:03:05.422Z,14.80
2018-05-25T03:04:06.229Z,14.80
2018-05-25T03:05:08.692Z,14.80
2018-05-25T03:06:07.853Z,14.80
2018-05-25T03:07:05.333Z,14.80
2018-05-25T03:08:05.889Z,14.80
2018-05-25T03:09:05.487Z,14.80
2018-05-25T03:10:06.632Z,14.80
2018-05-25T03:11:07.912Z,14.80
2018-05-25T03:12:08.021Z,14.80
2018-05-25T03:13:05.571Z,14.70
2018-05-25T03:14:05.313Z,14.80
2018-05-25T03:15:05.947Z,14.80
2018-05-25T03:16:10.668Z,14.80
2018-05-25T03:17:10.456Z,14.80
2018-05-25T03:18:06.226Z,14.70
2018-05-25T03:19:08.470Z,14.80
2018-05-25T03:20:11.064Z,14.80
2018-05-25T03:21:05.672Z,14.80
2018-05-25T03:22:08.380Z,14.70
2018-05-25T03:23:08.489Z,14.80
2018-05-25T03:24:08.471Z,14.80
2018-05-25T03:25:06.069Z,14.70
2018-05-25T03:26:06.137Z,14.80
2018-05-25T03:27:08.636Z,14.80
2018-05-25T03:28:05.231Z,14.80
2018-05-25T03:29:06.518Z,14.80
2018-05-25T03:30:05.294Z,14.80
2018-05-25T03:31:05.986Z,14.80
2018-05-25T03:32:10.636Z,14.70
2018-05-25T03:33:05.314Z,14.70
2018-05-25T03:34:09.188Z,14.70
2018-05-25T03:35:07.845Z,14.80
2018-05-25T03:36:05.396Z,14.70
2018-05-25T03:37:07.888Z,14.70
2018-05-25T03:38:05.362Z,14.70
2018-05-25T03:39:12.784Z,14.70
2018-05-25T03:40:12.821Z,14.70
2018-05-25T03:41:11.084Z,14.80
2018-05-25T03:42:05.557Z,14.70
2018-05-25T03:43:08.121Z,14.70
2018-05-25T03:44:06.053Z,14.70
2018-05-25T03:45:10.845Z,14.70
2018-05-25T03:46:05.819Z,14.70
2018-05-25T03:47:05.238Z,14.70
2018-05-25T03:48:05.939Z,14.70
2018-05-25T03:49:09.273Z,14.70
2018-05-25T03:50:05.955Z,14.70
2018-05-25T03:51:05.961Z,14.70
2018-05-25T03:52:11.336Z,14.70
2018-05-25T03:53:10.610Z,14.70
2018-05-25T03:54:05.255Z,14.70
2018-05-25T03:55:06.352Z,14.70
2018-05-25T03:56:11.016Z,14.70
2018-05-25T03:57:10.525Z,14.70
2018-05-25T03:58:08.550Z,14.70
2018-05-25T03:59:08.613Z,14.60
2018-05-25T04:00:07.781Z,14.70
2018-05-25T04:01:05.632Z,14.70
2018-05-25T04:02:07.817Z,14.60
2018-05-25T04:03:05.366Z,14.60
2018-05-25T04:04:07.922Z,14.70
2018-05-25T04:05:05.355Z,14.70
2018-05-25T04:06:07.975Z,14.70
2018-05-25T04:07:05.579Z,14.70
2018-05-25T04:08:05.804Z,14.70
2018-05-25T04:09:05.893Z,14.70
2018-05-25T04:10:05.639Z,14.70
2018-05-25T04:11:05.945Z,14.70
2018-05-25T04:12:08.255Z,14.70
2018-05-25T04:13:06.176Z,14.70
2018-05-25T04:14:08.413Z,14.70
2018-05-25T04:15:06.054Z,14.70
2018-05-25T04:16:10.832Z,14.70
2018-05-25T04:17:08.016Z,14.70
2018-05-25T04:18:05.691Z,14.70
2018-05-25T04:19:05.830Z,14.70
2018-05-25T04:20:08.034Z,14.70
2018-05-25T04:21:08.095Z,14.70
2018-05-25T04:22:10.552Z,14.70
2018-05-25T04:23:08.664Z,14.70
2018-05-25T04:24:05.431Z,14.70
2018-05-25T04:25:13.243Z,14.80
2018-05-25T04:26:05.706Z,14.70
2018-05-25T04:27:05.498Z,14.80
2018-05-25T04:28:05.694Z,14.70
2018-05-25T04:29:10.611Z,14.80
2018-05-25T04:30:06.087Z,14.70
2018-05-25T04:31:08.113Z,14.80
2018-05-25T04:32:05.825Z,14.80
2018-05-25T04:33:05.578Z,14.80
2018-05-25T04:34:05.533Z,14.80
2018-05-25T04:35:06.072Z,14.90
2018-05-25T04:36:13.318Z,14.90
2018-05-25T04:37:11.276Z,14.80
2018-05-25T04:38:08.535Z,14.90
2018-05-25T04:39:06.127Z,14.90
2018-05-25T04:40:08.710Z,14.90
2018-05-25T04:41:15.379Z,14.90
2018-05-25T04:42:06.379Z,14.90
2018-05-25T04:43:08.597Z,15.00
2018-05-25T04:44:06.184Z,15.00
2018-05-25T04:45:05.873Z,15.00
2018-05-25T04:46:08.264Z,15.00
2018-05-25T04:47:05.731Z,15.00
2018-05-25T04:48:05.842Z,15.00
2018-05-25T04:49:05.875Z,15.00
2018-05-25T04:50:08.109Z,15.10
2018-05-25T04:51:05.806Z,15.00
2018-05-25T04:52:05.550Z,15.10
2018-05-25T04:53:05.487Z,15.10
2018-05-25T04:54:08.664Z,15.10
2018-05-25T04:55:10.394Z,15.10
2018-05-25T04:56:05.917Z,15.10
2018-05-25T04:57:05.632Z,15.10
2018-05-25T04:58:05.817Z,15.20
2018-05-25T04:59:05.500Z,15.20
2018-05-25T05:00:05.151Z,15.20
2018-05-25T05:01:08.278Z,15.20
2018-05-25T05:02:06.002Z,15.20
2018-05-25T05:03:13.196Z,15.20
2018-05-25T05:04:05.680Z,15.20
2018-05-25T05:05:05.590Z,15.20
2018-05-25T05:06:05.658Z,15.20
2018-05-25T05:07:08.063Z,15.30
2018-05-25T05:08:05.596Z,15.30
2018-05-25T05:09:05.979Z,15.30
2018-05-25T05:10:06.174Z,15.30
2018-05-25T05:11:05.353Z,15.30
2018-05-25T05:12:05.845Z,15.30
2018-05-25T05:13:11.294Z,15.30
2018-05-25T05:14:06.549Z,15.30
2018-05-25T05:15:05.938Z,15.30
2018-05-25T05:16:05.521Z,15.30
2018-05-25T05:17:07.873Z,15.30
2018-05-25T05:18:07.967Z,15.40
2018-05-25T05:19:05.434Z,15.40
2018-05-25T05:20:05.464Z,15.40
2018-05-25T05:21:11.233Z,15.40
2018-05-25T05:22:06.764Z,15.40
2018-05-25T05:23:05.732Z,15.50
2018-05-25T05:24:05.542Z,15.50
2018-05-25T05:25:05.236Z,15.50
2018-05-25T05:26:10.343Z,15.50
2018-05-25T05:27:08.687Z,15.60
2018-05-25T05:28:05.254Z,15.60
2018-05-25T05:29:06.050Z,15.60
2018-05-25T05:30:08.453Z,15.70
2018-05-25T05:31:06.435Z,15.70
2018-05-25T05:32:05.907Z,15.70
2018-05-25T05:33:11.009Z,15.70
2018-05-25T05:34:10.642Z,15.80
2018-05-25T05:35:05.859Z,15.80
2018-05-25T05:36:08.205Z,15.80
2018-05-25T05:37:08.561Z,15.90
2018-05-25T05:38:07.885Z,15.90
2018-05-25T05:39:05.429Z,15.80
2018-05-25T05:40:06.407Z,15.90
2018-05-25T05:41:08.618Z,15.90
2018-05-25T05:42:08.624Z,16.00
2018-05-25T05:43:06.072Z,16.00
2018-05-25T05:44:08.611Z,16.00
2018-05-25T05:45:06.201Z,16.00
2018-05-25T05:46:10.968Z,16.00
2018-05-25T05:47:05.616Z,16.00
2018-05-25T05:48:08.124Z,16.10
2018-05-25T05:49:08.138Z,16.20
2018-05-25T05:50:08.962Z,16.20
2018-05-25T05:51:13.627Z,16.40
2018-05-25T05:52:07.605Z,16.50
2018-05-25T05:53:05.810Z,16.50
2018-05-25T05:54:08.444Z,16.90
2018-05-25T05:55:05.990Z,16.90
2018-05-25T05:56:10.772Z,17.30
2018-05-25T05:57:06.090Z,17.30
2018-05-25T05:58:08.249Z,17.70
2018-05-25T05:59:08.335Z,17.80
2018-05-25T06:00:05.609Z,17.80
2018-05-25T06:01:05.639Z,17.90
2018-05-25T06:02:05.282Z,18.00
2018-05-25T06:03:06.226Z,18.00
2018-05-25T06:04:08.546Z,18.10
2018-05-25T06:05:06.143Z,18.00
2018-05-25T06:06:08.427Z,18.10
2018-05-25T06:07:11.174Z,18.10
2018-05-25T06:08:05.763Z,18.10
2018-05-25T06:09:05.474Z,18.10
2018-05-25T06:10:05.318Z,18.00
2018-05-25T06:11:05.238Z,18.00
2018-05-25T06:12:10.276Z,17.90
2018-05-25T06:13:05.877Z,17.90
2018-05-25T06:14:08.376Z,17.80
2018-05-25T06:15:06.308Z,17.80
2018-05-25T06:16:08.521Z,17.80
2018-05-25T06:17:06.374Z,17.80
2018-05-25T06:18:08.708Z,17.70
2018-05-25T06:19:05.174Z,17.80
2018-05-25T06:20:05.619Z,17.80
2018-05-25T06:21:05.368Z,17.70
2018-05-25T06:22:08.613Z,17.80
2018-05-25T06:23:05.176Z,17.80
2018-05-25T06:24:06.302Z,17.80
2018-05-25T06:25:08.285Z,17.90
2018-05-25T06:26:08.318Z,17.90
2018-05-25T06:27:05.844Z,17.90
2018-05-25T06:28:11.021Z,17.90
2018-05-25T06:29:05.597Z,17.90
2018-05-25T06:30:06.070Z,17.90
2018-05-25T06:31:10.356Z,18.00
2018-05-25T06:32:06.084Z,18.00
2018-05-25T06:33:05.801Z,18.00
2018-05-25T06:34:05.554Z,18.00
2018-05-25T06:35:05.742Z,18.00
2018-05-25T06:36:05.830Z,18.10
2018-05-25T06:37:05.937Z,18.10
2018-05-25T06:38:08.170Z,18.20
2018-05-25T06:39:08.257Z,18.20
2018-05-25T06:40:05.654Z,18.20
2018-05-25T06:41:05.282Z,18.20
2018-05-25T06:42:05.433Z,18.20
2018-05-25T06:43:06.303Z,18.30
2018-05-25T06:44:05.509Z,18.40
2018-05-25T06:45:05.700Z,18.60
2018-05-25T06:46:06.624Z,18.70
2018-05-25T06:47:05.436Z,18.80
2018-05-25T06:48:06.088Z,18.90
2018-05-25T06:49:06.361Z,19.00
2018-05-25T06:50:06.106Z,19.00
2018-05-25T06:51:06.230Z,19.00
2018-05-25T06:52:06.156Z,19.00
2018-05-25T06:53:08.436Z,19.20
2018-05-25T06:54:05.953Z,19.20
2018-05-25T06:55:09.685Z,19.50
2018-05-25T06:56:05.289Z,19.50
2018-05-25T06:57:05.917Z,19.60
2018-05-25T06:58:10.677Z,19.70
2018-05-25T06:59:10.792Z,19.70
2018-05-25T07:00:05.941Z,19.60
2018-05-25T07:01:08.196Z,19.70
2018-05-25T07:02:06.542Z,19.60
2018-05-25T07:03:05.381Z,19.60
2018-05-25T07:04:06.607Z,19.50
2018-05-25T07:05:09.007Z,19.50
2018-05-25T07:06:07.918Z,19.40
2018-05-25T07:07:07.993Z,19.30
2018-05-25T07:08:08.554Z,19.30
2018-05-25T07:09:06.311Z,19.30
2018-05-25T07:10:11.022Z,19.30
2018-05-25T07:11:05.448Z,19.30
2018-05-25T07:12:08.973Z,19.20
2018-05-25T07:13:08.472Z,19.20
2018-05-25T07:14:05.670Z,19.20
2018-05-25T07:15:05.636Z,19.20
2018-05-25T07:16:05.257Z,19.10
2018-05-25T07:17:06.019Z,19.10
2018-05-25T07:18:06.293Z,19.10
2018-05-25T07:19:06.077Z,19.10
2018-05-25T07:20:05.718Z,19.10
2018-05-25T07:21:05.636Z,19.10
2018-05-25T07:22:05.341Z,19.00
2018-05-25T07:23:06.020Z,19.00
2018-05-25T07:24:05.649Z,19.00
2018-05-25T07:25:05.304Z,19.00
2018-05-25T07:26:08.344Z,19.00
2018-05-25T07:27:05.936Z,19.00
2018-05-25T07:28:05.634Z,19.10
2018-05-25T07:29:05.861Z,19.00
2018-05-25T07:30:07.949Z,19.00
2018-05-25T07:31:08.050Z,19.00
2018-05-25T07:32:08.408Z,19.00
2018-05-25T07:33:05.850Z,19.00
2018-05-25T07:34:10.644Z,19.00
2018-05-25T07:35:06.307Z,19.00
2018-05-25T07:36:08.642Z,19.00
2018-05-25T07:37:06.233Z,19.00
2018-05-25T07:38:06.236Z,19.00
2018-05-25T07:39:06.556Z,19.00
2018-05-25T07:40:05.706Z,19.00
2018-05-25T07:41:05.505Z,18.90
2018-05-25T07:42:05.514Z,18.90
2018-05-25T07:43:07.938Z,19.00
2018-05-25T07:44:05.537Z,18.90
2018-05-25T07:45:05.298Z,19.00
2018-05-25T07:46:05.434Z,19.00
2018-05-25T07:47:08.265Z,19.00
2018-05-25T07:48:06.097Z,19.00
2018-05-25T07:49:05.614Z,19.00
2018-05-25T07:50:07.924Z,19.00
2018-05-25T07:51:10.711Z,19.00
2018-05-25T07:52:05.675Z,19.00
2018-05-25T07:53:05.458Z,19.00
2018-05-25T07:54:08.495Z,19.00
2018-05-25T07:55:06.078Z,19.00
2018-05-25T07:56:06.127Z,18.90
2018-05-25T07:57:05.747Z,19.00
2018-05-25T07:58:08.095Z,19.00
2018-05-25T07:59:08.263Z,19.00
2018-05-25T08:00:08.403Z,19.00
2018-05-25T08:01:05.866Z,19.00
2018-05-25T08:02:05.977Z,19.00
2018-05-25T08:03:05.332Z,19.00
2018-05-25T08:04:06.093Z,19.00
2018-05-25T08:05:05.945Z,19.00
2018-05-25T08:06:07.945Z,19.00
2018-05-25T08:07:05.394Z,19.00
2018-05-25T08:08:05.487Z,19.10
2018-05-25T08:09:06.530Z,19.10
2018-05-25T08:10:05.852Z,19.10
2018-05-25T08:11:05.753Z,19.10
2018-05-25T08:12:08.017Z,19.00
2018-05-25T08:13:08.326Z,19.00
2018-05-25T08:14:05.926Z,19.00
2018-05-25T08:15:05.643Z,19.00
2018-05-25T08:16:05.531Z,19.00
2018-05-25T08:17:05.423Z,19.00
2018-05-25T08:18:08.716Z,18.90
2018-05-25T08:19:08.139Z,19.00
2018-05-25T08:20:09.091Z,18.90
2018-05-25T08:21:05.846Z,19.00
2018-05-25T08:22:05.662Z,19.00
2018-05-25T08:23:10.942Z,18.90
2018-05-25T08:24:05.465Z,18.90
2018-05-25T08:25:10.583Z,18.90
2018-05-25T08:26:06.221Z,18.90
2018-05-25T08:27:05.961Z,18.90
2018-05-25T08:28:08.533Z,18.90
2018-05-25T08:29:06.063Z,18.90
2018-05-25T08:30:06.055Z,18.90
2018-05-25T08:31:11.086Z,19.00
2018-05-25T08:32:05.565Z,19.00
2018-05-25T08:33:10.274Z,19.00
2018-05-25T08:34:08.326Z,19.00
2018-05-25T08:35:08.279Z,19.10
2018-05-25T08:36:05.764Z,19.00
2018-05-25T08:37:08.059Z,19.00
2018-05-25T08:38:08.014Z,19.10
2018-05-25T08:39:06.013Z,19.10
2018-05-25T08:40:11.016Z,19.10
2018-05-25T08:41:07.857Z,19.10
2018-05-25T08:42:05.660Z,19.20
2018-05-25T08:43:07.925Z,19.20
2018-05-25T08:44:06.548Z,19.20
2018-05-25T08:45:10.228Z,19.30
2018-05-25T08:46:05.743Z,19.30
2018-05-25T08:47:05.496Z,19.30
2018-05-25T08:48:08.753Z,19.30
2018-05-25T08:49:08.690Z,19.40
2018-05-25T08:50:05.911Z,19.40
2018-05-25T08:51:08.364Z,19.50
2018-05-25T08:52:06.213Z,19.40
2018-05-25T08:53:06.056Z,19.50
2018-05-25T08:54:08.369Z,19.60
2018-05-25T08:55:08.284Z,19.60
2018-05-25T08:56:10.761Z,19.70
2018-05-25T08:57:06.232Z,19.70
2018-05-25T08:58:05.951Z,19.80
2018-05-25T08:59:06.000Z,19.80
2018-05-25T09:00:05.718Z,19.80
2018-05-25T09:01:05.451Z,19.90
2018-05-25T09:02:10.443Z,19.90
2018-05-25T09:03:05.923Z,20.00
2018-05-25T09:04:05.851Z,20.00
2018-05-25T09:05:07.833Z,20.10
2018-05-25T09:06:05.414Z,20.10
2018-05-25T09:07:10.228Z,20.20
2018-05-25T09:08:10.782Z,20.20
2018-05-25T09:09:10.254Z,20.20
2018-05-25T09:10:05.626Z,20.20
2018-05-25T09:11:10.252Z,20.20
2018-05-25T09:12:05.781Z,20.20
2018-05-25T09:13:05.390Z,20.30
2018-05-25T09:14:06.135Z,20.30
2018-05-25T09:15:08.216Z,20.30
2018-05-25T09:16:08.380Z,20.40
2018-05-25T09:17:05.922Z,20.40
2018-05-25T09:18:05.848Z,20.40
2018-05-25T09:19:05.604Z,20.40
2018-05-25T09:20:07.020Z,20.50
2018-05-25T09:21:09.205Z,20.50
2018-05-25T09:22:05.967Z,20.50
2018-05-25T09:23:08.335Z,20.50
2018-05-25T09:24:08.468Z,20.50
2018-05-25T09:25:11.061Z,20.50
2018-05-25T09:26:06.072Z,20.50
2018-05-25T09:27:05.924Z,20.50
2018-05-25T09:28:05.909Z,20.50
2018-05-25T09:29:05.415Z,20.50
2018-05-25T09:30:05.480Z,20.60
2018-05-25T09:31:07.794Z,20.50
2018-05-25T09:32:07.747Z,20.50
2018-05-25T09:33:05.169Z,20.50
2018-05-25T09:34:05.920Z,20.50
2018-05-25T09:35:05.938Z,20.50
2018-05-25T09:36:05.678Z,20.50
2018-05-25T09:37:05.267Z,20.50
2018-05-25T09:38:08.487Z,20.50
2018-05-25T09:39:06.225Z,20.50
2018-05-25T09:40:08.513Z,20.50
2018-05-25T09:41:08.036Z,20.50
2018-05-25T09:42:05.587Z,20.50
2018-05-25T09:43:07.954Z,20.50
2018-05-25T09:44:08.035Z,20.50
2018-05-25T09:45:05.462Z,20.50
2018-05-25T09:46:05.254Z,20.60
2018-05-25T09:47:06.071Z,20.60
2018-05-25T09:48:05.746Z,20.60
2018-05-25T09:49:06.439Z,20.60
2018-05-25T09:50:06.135Z,20.60
2018-05-25T09:51:05.771Z,20.60
2018-05-25T09:52:05.568Z,20.60
2018-05-25T09:53:07.760Z,20.60
2018-05-25T09:54:07.865Z,20.60
2018-05-25T09:55:05.281Z,20.60
2018-05-25T09:56:11.119Z,20.60
2018-05-25T09:57:10.921Z,20.70
2018-05-25T09:58:05.321Z,20.70
2018-05-25T09:59:08.387Z,20.70
2018-05-25T10:00:08.387Z,20.70
2018-05-25T10:01:10.343Z,20.70
2018-05-25T10:02:06.947Z,20.70
2018-05-25T10:03:08.067Z,20.80
2018-05-25T10:04:05.701Z,20.80
2018-05-25T10:05:05.287Z,20.80
2018-05-25T10:06:05.865Z,20.80
2018-05-25T10:07:05.472Z,20.90
2018-05-25T10:08:08.628Z,21.00
2018-05-25T10:09:08.518Z,21.00
2018-05-25T10:10:11.486Z,21.00
2018-05-25T10:11:06.056Z,21.00
2018-05-25T10:12:08.435Z,21.10
2018-05-25T10:13:08.461Z,21.10
2018-05-25T10:14:05.919Z,21.00
2018-05-25T10:15:05.725Z,21.10
2018-05-25T10:16:08.474Z,21.10
2018-05-25T10:17:08.554Z,21.10
2018-05-25T10:18:05.945Z,21.10
2018-05-25T10:19:08.110Z,21.20
2018-05-25T10:20:05.695Z,21.10
2018-05-25T10:21:05.366Z,21.20
2018-05-25T10:22:08.715Z,21.30
2018-05-25T10:23:05.136Z,21.30
2018-05-25T10:24:05.423Z,21.30
2018-05-25T10:25:11.283Z,21.30
2018-05-25T10:26:09.001Z,21.30
2018-05-25T10:27:05.657Z,21.30
2018-05-25T10:28:08.305Z,21.40
2018-05-25T10:29:08.250Z,21.40
2018-05-25T10:30:05.361Z,21.40
2018-05-25T10:31:06.019Z,21.40
2018-05-25T10:32:05.768Z,21.40
2018-05-25T10:33:05.476Z,21.40
2018-05-25T10:34:12.811Z,21.30
2018-05-25T10:35:05.364Z,21.30
2018-05-25T10:36:06.618Z,21.30
2018-05-25T10:37:10.422Z,21.20
2018-05-25T10:38:05.838Z,21.20
2018-05-25T10:39:08.028Z,21.20
2018-05-25T10:40:05.794Z,21.10
2018-05-25T10:41:05.436Z,21.10
2018-05-25T10:42:07.912Z,21.10
2018-05-25T10:43:07.963Z,21.00
2018-05-25T10:44:05.451Z,21.10
2018-05-25T10:45:10.311Z,21.10
2018-05-25T10:46:05.821Z,21.10
2018-05-25T10:47:08.342Z,21.10
2018-05-25T10:48:05.807Z,21.10
2018-05-25T10:49:08.086Z,21.10
2018-05-25T10:50:06.104Z,21.10
2018-05-25T10:51:08.252Z,21.20
2018-05-25T10:52:05.850Z,21.20
2018-05-25T10:53:05.486Z,21.20
2018-05-25T10:54:05.304Z,21.20
2018-05-25T10:55:08.605Z,21.30
2018-05-25T10:56:12.814Z,21.30
2018-05-25T10:57:07.904Z,21.30
2018-05-25T10:58:05.361Z,21.30
2018-05-25T10:59:08.553Z,21.30
2018-05-25T11:00:06.028Z,21.30
2018-05-25T11:01:08.478Z,21.30
2018-05-25T11:02:06.531Z,21.30
2018-05-25T11:03:06.614Z,21.30
2018-05-25T11:04:05.333Z,21.30
2018-05-25T11:05:06.020Z,21.30
2018-05-25T11:06:05.862Z,21.30
2018-05-25T11:07:08.164Z,21.30
2018-05-25T11:08:05.919Z,21.30
2018-05-25T11:09:06.127Z,21.30
2018-05-25T11:10:06.243Z,21.30
2018-05-25T11:11:08.585Z,21.30
2018-05-25T11:12:08.694Z,21.40
2018-05-25T11:13:06.174Z,21.30
2018-05-25T11:14:05.736Z,21.30
2018-05-25T11:15:05.393Z,21.30
2018-05-25T11:16:11.159Z,21.40
2018-05-25T11:17:10.766Z,21.40
2018-05-25T11:18:06.002Z,21.40
2018-05-25T11:19:05.644Z,21.40
2018-05-25T11:20:08.416Z,21.40
2018-05-25T11:21:09.421Z,21.50
2018-05-25T11:22:05.745Z,21.40
2018-05-25T11:23:05.572Z,21.50
2018-05-25T11:24:07.995Z,21.60
2018-05-25T11:25:08.088Z,21.60
2018-05-25T11:26:05.545Z,21.60
2018-05-25T11:27:06.125Z,21.60
2018-05-25T11:28:16.003Z,21.60
2018-05-25T11:29:05.662Z,21.60
2018-05-25T11:30:07.990Z,21.60
2018-05-25T11:31:08.028Z,21.70
2018-05-25T11:32:08.266Z,21.60
2018-05-25T11:33:05.712Z,21.60
2018-05-25T11:34:05.803Z,21.70
2018-05-25T11:35:08.088Z,21.60
2018-05-25T11:36:10.827Z,21.70
2018-05-25T11:37:10.494Z,21.70
2018-05-25T11:38:06.311Z,21.70
2018-05-25T11:39:06.149Z,21.60
2018-05-25T11:40:05.732Z,21.60
2018-05-25T11:41:05.495Z,21.60
2018-05-25T11:42:11.216Z,21.60
2018-05-25T11:43:07.860Z,21.70
2018-05-25T11:44:05.266Z,21.60
2018-05-25T11:45:12.954Z,21.70
2018-05-25T11:46:05.436Z,21.70
2018-05-25T11:47:08.046Z,21.70
2018-05-25T11:48:05.610Z,21.70
2018-05-25T11:49:08.228Z,21.70
2018-05-25T11:50:08.171Z,21.70
2018-05-25T11:51:05.567Z,21.60
2018-05-25T11:52:05.202Z,21.60
2018-05-25T11:53:10.700Z,21.60
2018-05-25T11:54:05.895Z,21.60
2018-05-25T11:55:06.024Z,21.60
2018-05-25T11:56:05.442Z,21.60
2018-05-25T11:57:05.491Z,21.60
2018-05-25T11:58:10.193Z,21.60
2018-05-25T11:59:05.628Z,21.70
2018-05-25T12:00:07.741Z,21.70
2018-05-25T12:01:07.760Z,21.60
2018-05-25T12:02:06.021Z,21.60
2018-05-25T12:03:05.922Z,21.60
2018-05-25T12:04:05.715Z,21.60
2018-05-25T12:05:05.255Z,21.60
2018-05-25T12:06:08.454Z,21.60
2018-05-25T12:07:06.388Z,21.60
2018-05-25T12:08:08.220Z,21.60
2018-05-25T12:09:08.269Z,21.50
2018-05-25T12:10:05.718Z,21.60
2018-05-25T12:11:06.109Z,21.60
2018-05-25T12:12:06.067Z,21.50
2018-05-25T12:13:06.050Z,21.60
2018-05-25T12:14:05.569Z,21.60
2018-05-25T12:15:06.195Z,21.60
2018-05-25T12:16:05.798Z,21.60
2018-05-25T12:17:05.579Z,21.60
2018-05-25T12:18:05.411Z,21.60
2018-05-25T12:19:06.094Z,21.60
2018-05-25T12:20:05.674Z,21.60
2018-05-25T12:21:10.448Z,21.60
2018-05-25T12:22:08.346Z,21.60
2018-05-25T12:23:05.893Z,21.60
2018-05-25T12:24:05.568Z,21.60
2018-05-25T12:25:08.200Z,21.60
2018-05-25T12:26:08.330Z,21.60
2018-05-25T12:27:05.765Z,21.60
2018-05-25T12:28:10.496Z,21.60
2018-05-25T12:29:11.061Z,21.70
2018-05-25T12:30:05.318Z,21.70
2018-05-25T12:31:05.928Z,21.70
2018-05-25T12:32:06.113Z,21.80
2018-05-25T12:33:08.403Z,21.80
2018-05-25T12:34:06.326Z,21.80
2018-05-25T12:35:08.656Z,22.00
2018-05-25T12:36:11.154Z,22.00
2018-05-25T12:37:05.584Z,22.00
2018-05-25T12:38:07.825Z,22.10
2018-05-25T12:39:08.380Z,22.10
2018-05-25T12:40:06.038Z,22.10
2018-05-25T12:41:05.992Z,22.20
2018-05-25T12:42:05.606Z,22.20
2018-05-25T12:43:08.247Z,22.40
2018-05-25T12:44:05.413Z,22.40
2018-05-25T12:45:05.982Z,22.50
2018-05-25T12:46:05.787Z,22.50
2018-05-25T12:47:05.625Z,22.60
2018-05-25T12:48:05.722Z,22.60
2018-05-25T12:49:08.486Z,22.70
2018-05-25T12:50:06.120Z,22.60
2018-05-25T12:51:11.103Z,22.70
2018-05-25T12:52:06.242Z,22.70